createdAt,value
2018-05-31T00:00:53.562Z,239.20
2018-05-31T00:01:53.621Z,228.00
2018-05-31T00:02:53.658Z,231.80
2018-05-31T00:03:53.716Z,242.90
2018-05-31T00:04:53.761Z,243.40
2018-05-31T00:05:53.912Z,258.30
2018-05-31T00:06:53.842Z,277.30
2018-05-31T00:07:53.927Z,277.00
2018-05-31T00:08:53.927Z,263.50
2018-05-31T00:09:53.979Z,251.10
2018-05-31T00:10:54.124Z,258.70
2018-05-31T00:11:54.070Z,281.20
2018-05-31T00:12:54.108Z,276.90
2018-05-31T00:13:54.150Z,273.40
2018-05-31T00:14:54.205Z,261.90
2018-05-31T00:15:54.238Z,251.20
2018-05-31T00:16:54.283Z,250.90
2018-05-31T00:17:54.426Z,252.80
2018-05-31T00:18:54.355Z,258.60
2018-05-31T00:19:54.417Z,238.20
2018-05-31T00:20:54.459Z,241.90
2018-05-31T00:21:54.486Z,235.00
2018-05-31T00:22:54.649Z,228.20
2018-05-31T00:23:54.582Z,217.10
2018-05-31T00:24:54.647Z,219.20
2018-05-31T00:25:54.673Z,215.10
2018-05-31T00:26:54.719Z,207.80
2018-05-31T00:27:54.759Z,223.10
2018-05-31T00:28:54.812Z,211.20
2018-05-31T00:29:54.847Z,206.10
2018-05-31T00:30:54.883Z,216.60
2018-05-31T00:31:54.941Z,202.80
2018-05-31T00:32:55.077Z,211.60
2018-05-31T00:33:55.029Z,206.70
2018-05-31T00:34:55.082Z,220.50
2018-05-31T00:35:55.118Z,214.30
2018-05-31T00:36:55.171Z,200.50
2018-05-31T00:37:55.203Z,187.00
2018-05-31T00:38:55.237Z,182.80
2018-05-31T00:39:55.391Z,206.10
2018-05-31T00:40:55.325Z,206.80
2018-05-31T00:41:55.369Z,195.90
2018-05-31T00:42:55.428Z,169.90
2018-05-31T00:43:55.454Z,160.50
2018-05-31T00:44:55.505Z,157.80
2018-05-31T00:45:55.561Z,166.00
2018-05-31T00:46:55.587Z,162.80
2018-05-31T00:47:55.647Z,170.30
2018-05-31T00:48:55.695Z,171.70
2018-05-31T00:49:55.831Z,167.40
2018-05-31T00:50:55.781Z,169.80
2018-05-31T00:51:55.819Z,170.80
2018-05-31T00:52:55.866Z,173.20
2018-05-31T00:53:55.906Z,155.30
2018-05-31T00:54:55.933Z,147.80
2018-05-31T00:55:55.991Z,128.60
2018-05-31T00:56:56.051Z,140.80
2018-05-31T00:57:56.074Z,134.50
2018-05-31T00:58:56.123Z,137.90
2018-05-31T00:59:56.259Z,137.40
2018-05-31T01:00:56.196Z,136.90
2018-05-31T01:01:56.259Z,142.40
2018-05-31T01:02:56.285Z,131.60
2018-05-31T01:03:56.339Z,123.40
2018-05-31T01:04:56.376Z,113.00
2018-05-31T01:05:56.432Z,111.30
2018-05-31T01:06:56.577Z,122.60
2018-05-31T01:07:56.518Z,103.20
2018-05-31T01:08:56.559Z,115.20
2018-05-31T01:09:56.592Z,131.30
2018-05-31T01:10:56.631Z,124.10
2018-05-31T01:11:56.680Z,113.80
2018-05-31T01:12:56.831Z,125.90
2018-05-31T01:13:56.793Z,116.70
2018-05-31T01:14:56.809Z,112.00
2018-05-31T01:15:56.869Z,119.10
2018-05-31T01:16:56.901Z,119.30
2018-05-31T01:17:56.953Z,113.10
2018-05-31T01:18:57.114Z,122.60
2018-05-31T01:19:57.048Z,119.80
2018-05-31T01:20:57.086Z,117.40
2018-05-31T01:21:57.122Z,130.60
2018-05-31T01:22:57.161Z,122.90
2018-05-31T01:23:57.302Z,118.60
2018-05-31T01:24:57.242Z,113.50
2018-05-31T01:25:57.288Z,124.00
2018-05-31T01:26:57.334Z,134.60
2018-05-31T01:27:57.399Z,129.90
2018-05-31T01:28:57.425Z,123.00
2018-05-31T01:29:57.460Z,124.80
2018-05-31T01:30:57.624Z,129.10
2018-05-31T01:31:57.562Z,119.20
2018-05-31T01:32:57.602Z,115.50
2018-05-31T01:33:57.673Z,106.70
2018-05-31T01:34:57.698Z,112.10
2018-05-31T01:35:57.733Z,110.90
2018-05-31T01:36:57.863Z,121.80
2018-05-31T01:37:57.809Z,131.00
2018-05-31T01:38:57.875Z,133.70
2018-05-31T01:39:57.908Z,155.90
2018-05-31T01:40:57.940Z,152.70
2018-05-31T01:41:57.983Z,154.20
2018-05-31T01:42:58.150Z,143.00
2018-05-31T01:43:58.092Z,140.50
2018-05-31T01:44:58.120Z,135.70
2018-05-31T01:45:58.173Z,117.40
2018-05-31T01:46:58.212Z,116.60
2018-05-31T01:47:58.265Z,116.90
2018-05-31T01:48:58.408Z,142.70
2018-05-31T01:49:58.330Z,185.20
2018-05-31T01:50:58.385Z,148.20
2018-05-31T01:51:58.416Z,156.00
2018-05-31T01:52:58.465Z,151.90
2018-05-31T01:53:58.521Z,145.80
2018-05-31T01:54:58.646Z,157.20
2018-05-31T01:55:58.603Z,160.50
2018-05-31T01:56:58.646Z,155.80
2018-05-31T01:57:58.679Z,165.60
2018-05-31T01:58:58.738Z,152.20
2018-05-31T01:59:58.892Z,143.70
2018-05-31T02:00:58.816Z,150.30
2018-05-31T02:01:58.879Z,153.90
2018-05-31T02:02:58.910Z,136.60
2018-05-31T02:03:58.952Z,145.90
2018-05-31T02:04:58.998Z,138.50
2018-05-31T02:05:59.028Z,129.30
2018-05-31T02:06:59.068Z,136.00
2018-05-31T02:07:59.190Z,133.80
2018-05-31T02:08:59.169Z,132.40
2018-05-31T02:09:59.220Z,124.00
2018-05-31T02:10:59.339Z,129.90
2018-05-31T02:11:59.296Z,124.50
2018-05-31T02:12:59.333Z,119.60
2018-05-31T02:13:59.393Z,128.30
2018-05-31T02:14:59.430Z,118.90
2018-05-31T02:15:59.461Z,157.10
2018-05-31T02:16:59.598Z,160.80
2018-05-31T02:17:59.558Z,177.10
2018-05-31T02:18:59.600Z,167.20
2018-05-31T02:19:59.634Z,164.00
2018-05-31T02:20:59.686Z,191.30
2018-05-31T02:21:59.844Z,204.50
2018-05-31T02:22:59.771Z,185.10
2018-05-31T02:23:59.829Z,172.10
2018-05-31T02:24:59.861Z,169.90
2018-05-31T02:25:59.905Z,175.50
2018-05-31T02:26:59.938Z,183.30
2018-05-31T02:27:59.994Z,184.10
2018-05-31T02:29:00.033Z,195.60
2018-05-31T02:30:00.092Z,163.60
2018-05-31T02:31:00.104Z,183.20
2018-05-31T02:32:00.279Z,181.10
2018-05-31T02:33:00.201Z,168.00
2018-05-31T02:34:00.239Z,194.30
2018-05-31T02:35:00.275Z,175.80
2018-05-31T02:36:00.334Z,179.90
2018-05-31T02:37:00.378Z,180.40
2018-05-31T02:38:00.511Z,179.70
2018-05-31T02:39:00.460Z,180.70
2018-05-31T02:40:00.512Z,188.60
2018-05-31T02:41:00.544Z,197.20
2018-05-31T02:42:00.599Z,185.00
2018-05-31T02:43:00.635Z,182.10
2018-05-31T02:44:00.898Z,176.10
2018-05-31T02:45:00.727Z,174.60
2018-05-31T02:46:00.763Z,172.80
2018-05-31T02:47:00.799Z,172.70
2018-05-31T02:48:00.840Z,190.40
2018-05-31T02:49:01.000Z,148.40
2018-05-31T02:50:00.943Z,149.20
2018-05-31T02:51:00.980Z,149.70
2018-05-31T02:52:01.032Z,142.10
2018-05-31T02:53:01.077Z,128.40
2018-05-31T02:54:01.107Z,111.60
2018-05-31T02:55:01.358Z,113.20
2018-05-31T02:56:01.205Z,103.60
2018-05-31T02:57:01.244Z,99.40
2018-05-31T02:58:01.303Z,104.30
2018-05-31T02:59:01.323Z,101.80
2018-05-31T03:00:01.367Z,108.10
2018-05-31T03:01:01.518Z,111.20
2018-05-31T03:02:01.454Z,102.50
2018-05-31T03:03:01.507Z,93.90
2018-05-31T03:04:01.550Z,96.70
2018-05-31T03:05:01.597Z,105.90
2018-05-31T03:06:01.639Z,102.30
2018-05-31T03:07:01.682Z,109.50
2018-05-31T03:08:01.825Z,112.00
2018-05-31T03:09:01.767Z,105.70
2018-05-31T03:10:01.808Z,93.70
2018-05-31T03:11:01.861Z,95.90
2018-05-31T03:12:01.885Z,102.60
2018-05-31T03:13:02.148Z,98.10
2018-05-31T03:14:01.992Z,101.20
2018-05-31T03:15:02.012Z,107.80
2018-05-31T03:16:02.065Z,110.20
2018-05-31T03:17:02.120Z,109.20
2018-05-31T03:18:02.166Z,119.30
2018-05-31T03:19:02.189Z,125.70
2018-05-31T03:20:02.243Z,119.90
2018-05-31T03:21:02.280Z,130.10
2018-05-31T03:22:02.308Z,117.90
2018-05-31T03:23:02.448Z,113.90
2018-05-31T03:24:02.609Z,121.30
2018-05-31T03:25:02.453Z,123.60
2018-05-31T03:26:02.511Z,126.60
2018-05-31T03:27:02.550Z,132.90
2018-05-31T03:28:02.568Z,127.80
2018-05-31T03:29:02.614Z,138.80
2018-05-31T03:30:02.764Z,129.90
2018-05-31T03:31:02.714Z,134.00
2018-05-31T03:32:02.754Z,121.80
2018-05-31T03:33:02.796Z,127.70
2018-05-31T03:34:02.824Z,135.80
2018-05-31T03:35:02.968Z,138.60
2018-05-31T03:36:02.937Z,145.20
2018-05-31T03:37:02.971Z,152.90
2018-05-31T03:38:03.009Z,150.00
2018-05-31T03:39:03.054Z,152.70
2018-05-31T03:40:03.099Z,128.80
2018-05-31T03:41:03.328Z,133.20
2018-05-31T03:42:03.167Z,136.00
2018-05-31T03:43:03.208Z,131.80
2018-05-31T03:44:03.271Z,125.30
2018-05-31T03:45:03.300Z,129.10
2018-05-31T03:46:03.342Z,127.60
2018-05-31T03:47:03.479Z,131.40
2018-05-31T03:48:03.441Z,149.30
2018-05-31T03:49:03.477Z,175.60
2018-05-31T03:50:03.510Z,190.60
2018-05-31T03:51:03.572Z,215.80
2018-05-31T03:52:03.604Z,213.30
2018-05-31T03:53:03.752Z,204.40
2018-05-31T03:54:03.680Z,177.90
2018-05-31T03:55:03.738Z,161.60
2018-05-31T03:56:03.772Z,139.20
2018-05-31T03:57:03.815Z,133.70
2018-05-31T03:58:04.056Z,122.20
2018-05-31T03:59:03.908Z,115.40
2018-05-31T04:00:03.940Z,111.90
2018-05-31T04:01:04.001Z,96.10
2018-05-31T04:02:04.042Z,95.90
2018-05-31T04:03:04.067Z,105.50
2018-05-31T04:04:04.230Z,103.30
2018-05-31T04:05:04.176Z,95.20
2018-05-31T04:06:04.208Z,109.30
2018-05-31T04:07:04.259Z,105.70
2018-05-31T04:08:04.296Z,98.90
2018-05-31T04:09:04.329Z,100.00
2018-05-31T04:10:04.592Z,103.50
2018-05-31T04:11:04.434Z,88.40
2018-05-31T04:12:04.464Z,94.00
2018-05-31T04:13:04.551Z,103.60
2018-05-31T04:14:04.535Z,93.20
2018-05-31T04:15:04.700Z,95.30
2018-05-31T04:16:04.629Z,109.60
2018-05-31T04:17:04.690Z,113.70
2018-05-31T04:18:04.709Z,134.90
2018-05-31T04:19:04.776Z,195.00
2018-05-31T04:20:04.796Z,252.90
2018-05-31T04:21:05.035Z,374.80
2018-05-31T04:22:04.892Z,301.00
2018-05-31T04:23:04.921Z,277.90
2018-05-31T04:24:04.976Z,248.50
2018-05-31T04:25:05.005Z,252.80
2018-05-31T04:26:05.253Z,239.20
2018-05-31T04:27:05.202Z,209.60
2018-05-31T04:28:05.137Z,218.10
2018-05-31T04:29:05.174Z,193.30
2018-05-31T04:30:05.235Z,169.00
2018-05-31T04:31:05.303Z,178.30
2018-05-31T04:32:05.318Z,193.80
2018-05-31T04:33:05.579Z,189.10
2018-05-31T04:34:05.389Z,204.70
2018-05-31T04:35:05.440Z,174.90
2018-05-31T04:36:05.488Z,186.70
2018-05-31T04:37:05.533Z,172.90
2018-05-31T04:38:05.575Z,172.80
2018-05-31T04:39:05.705Z,198.80
2018-05-31T04:40:05.654Z,194.80
2018-05-31T04:41:05.700Z,207.30
2018-05-31T04:42:05.739Z,262.30
2018-05-31T04:43:05.791Z,275.20
2018-05-31T04:44:05.814Z,261.10
2018-05-31T04:45:05.858Z,255.70
2018-05-31T04:46:06.012Z,275.00
2018-05-31T04:47:05.952Z,249.30
2018-05-31T04:48:05.983Z,217.10
2018-05-31T04:49:06.045Z,248.10
2018-05-31T04:50:06.091Z,248.20
2018-05-31T04:51:06.319Z,238.70
2018-05-31T04:52:06.157Z,228.40
2018-05-31T04:53:06.194Z,236.80
2018-05-31T04:54:06.249Z,225.50
2018-05-31T04:55:06.276Z,242.60
2018-05-31T04:56:06.334Z,223.20
2018-05-31T04:57:06.494Z,225.30
2018-05-31T04:58:06.439Z,218.60
2018-05-31T04:59:06.446Z,220.70
2018-05-31T05:00:06.515Z,225.20
2018-05-31T05:01:06.538Z,204.00
2018-05-31T05:02:06.605Z,195.70
2018-05-31T05:03:06.815Z,193.90
2018-05-31T05:04:06.674Z,193.90
2018-05-31T05:05:06.707Z,192.60
2018-05-31T05:06:06.761Z,182.00
2018-05-31T05:07:06.791Z,172.20
2018-05-31T05:08:06.842Z,182.20
2018-05-31T05:09:06.876Z,172.90
2018-05-31T05:10:06.942Z,175.50
2018-05-31T05:11:06.956Z,164.60
2018-05-31T05:12:07.003Z,166.30
2018-05-31T05:13:07.142Z,169.00
2018-05-31T05:14:07.100Z,179.00
2018-05-31T05:15:07.145Z,172.20
2018-05-31T05:16:07.196Z,172.40
2018-05-31T05:17:07.225Z,173.80
2018-05-31T05:18:07.469Z,170.30
2018-05-31T05:19:07.318Z,174.30
2018-05-31T05:20:07.360Z,172.70
2018-05-31T05:21:07.398Z,175.20
2018-05-31T05:22:07.429Z,161.50
2018-05-31T05:23:07.461Z,179.20
2018-05-31T05:24:07.531Z,176.00
2018-05-31T05:25:07.565Z,172.00
2018-05-31T05:26:07.609Z,161.00
2018-05-31T05:27:07.640Z,162.70
2018-05-31T05:28:07.777Z,161.70
2018-05-31T05:29:07.925Z,159.90
2018-05-31T05:30:07.793Z,169.80
2018-05-31T05:31:07.801Z,153.30
2018-05-31T05:32:07.868Z,161.40
2018-05-31T05:33:07.928Z,155.90
2018-05-31T05:34:07.939Z,168.70
2018-05-31T05:35:08.069Z,187.80
2018-05-31T05:36:08.017Z,211.30
2018-05-31T05:37:08.065Z,194.50
2018-05-31T05:38:08.101Z,168.70
2018-05-31T05:39:08.157Z,158.60
2018-05-31T05:40:08.297Z,159.20
2018-05-31T05:41:08.243Z,165.40
2018-05-31T05:42:08.273Z,168.60
2018-05-31T05:43:08.309Z,174.60
2018-05-31T05:44:08.365Z,181.20
2018-05-31T05:45:08.612Z,185.20
2018-05-31T05:46:08.447Z,195.30
2018-05-31T05:47:08.492Z,200.50
2018-05-31T05:48:08.537Z,188.90
2018-05-31T05:49:08.562Z,155.50
2018-05-31T05:50:08.672Z,158.40
2018-05-31T05:51:08.674Z,180.90
2018-05-31T05:52:08.695Z,174.60
2018-05-31T05:53:08.749Z,172.50
2018-05-31T05:54:08.790Z,187.20
2018-05-31T05:55:08.922Z,178.60
2018-05-31T05:56:08.855Z,146.90
2018-05-31T05:57:08.901Z,154.30
2018-05-31T05:58:08.957Z,149.20
2018-05-31T05:59:09.011Z,168.50
2018-05-31T06:00:09.232Z,155.30
2018-05-31T06:01:09.069Z,150.30
2018-05-31T06:02:09.109Z,153.40
2018-05-31T06:03:09.169Z,156.90
2018-05-31T06:04:09.243Z,144.40
2018-05-31T06:05:09.247Z,142.70
2018-05-31T06:06:09.383Z,145.50
2018-05-31T06:07:09.336Z,146.50
2018-05-31T06:08:09.379Z,129.00
2018-05-31T06:09:09.418Z,108.90
2018-05-31T06:10:09.592Z,115.40
2018-05-31T06:11:09.696Z,96.50
2018-05-31T06:12:09.529Z,84.20
2018-05-31T06:13:09.597Z,90.40
2018-05-31T06:14:09.627Z,86.30
2018-05-31T06:15:09.664Z,81.70
2018-05-31T06:16:09.699Z,87.60
2018-05-31T06:17:09.843Z,85.90
2018-05-31T06:18:09.779Z,93.90
2018-05-31T06:19:09.823Z,92.30
2018-05-31T06:20:09.869Z,90.10
2018-05-31T06:21:09.921Z,85.10
2018-05-31T06:22:09.951Z,89.40
2018-05-31T06:23:09.997Z,92.00
2018-05-31T06:24:10.034Z,87.40
2018-05-31T06:25:10.075Z,95.00
2018-05-31T06:26:10.131Z,95.10
2018-05-31T06:27:10.355Z,96.50
2018-05-31T06:28:10.211Z,95.50
2018-05-31T06:29:10.261Z,97.20
2018-05-31T06:30:10.302Z,102.50
2018-05-31T06:31:10.331Z,107.90
2018-05-31T06:32:10.486Z,116.70
2018-05-31T06:33:10.426Z,106.30
2018-05-31T06:34:10.475Z,107.40
2018-05-31T06:35:10.490Z,109.50
2018-05-31T06:36:10.534Z,108.30
2018-05-31T06:37:10.626Z,109.60
2018-05-31T06:38:10.625Z,104.70
2018-05-31T06:39:10.656Z,103.30
2018-05-31T06:40:10.705Z,103.10
2018-05-31T06:41:10.740Z,102.90
2018-05-31T06:42:10.998Z,108.00
2018-05-31T06:43:10.825Z,110.00
2018-05-31T06:44:10.866Z,102.00
2018-05-31T06:45:10.929Z,127.80
2018-05-31T06:46:10.968Z,120.70
2018-05-31T06:47:11.110Z,106.20
2018-05-31T06:48:11.031Z,106.60
2018-05-31T06:49:11.092Z,107.10
2018-05-31T06:50:11.121Z,109.70
2018-05-31T06:51:11.164Z,99.10
2018-05-31T06:52:11.202Z,107.60
2018-05-31T06:53:11.447Z,123.30
2018-05-31T06:54:11.307Z,120.70
2018-05-31T06:55:11.348Z,101.40
2018-05-31T06:56:11.385Z,122.90
2018-05-31T06:57:11.426Z,124.20
2018-05-31T06:58:11.473Z,134.70
2018-05-31T06:59:11.594Z,143.40
2018-05-31T07:00:11.552Z,145.40
2018-05-31T07:01:11.599Z,163.50
2018-05-31T07:02:11.642Z,150.10
2018-05-31T07:03:11.666Z,150.80
2018-05-31T07:04:11.700Z,171.20
2018-05-31T07:05:11.963Z,180.30
2018-05-31T07:06:11.802Z,163.90
2018-05-31T07:07:11.833Z,165.10
2018-05-31T07:08:11.871Z,173.40
2018-05-31T07:09:11.914Z,177.90
2018-05-31T07:10:11.952Z,209.80
2018-05-31T07:11:12.115Z,213.60
2018-05-31T07:12:12.038Z,234.70
2018-05-31T07:13:12.085Z,258.00
2018-05-31T07:14:12.132Z,248.80
2018-05-31T07:15:12.162Z,262.80
2018-05-31T07:16:12.203Z,287.50
2018-05-31T07:17:12.449Z,273.80
2018-05-31T07:18:12.291Z,287.10
2018-05-31T07:19:12.347Z,284.60
2018-05-31T07:20:12.391Z,291.20
2018-05-31T07:21:12.429Z,284.00
2018-05-31T07:22:12.480Z,283.00
2018-05-31T07:23:12.620Z,283.50
2018-05-31T07:24:12.561Z,297.00
2018-05-31T07:25:12.580Z,278.00
2018-05-31T07:26:12.616Z,289.70
2018-05-31T07:27:12.684Z,266.20
2018-05-31T07:28:12.724Z,261.00
2018-05-31T07:29:12.958Z,262.90
2018-05-31T07:30:12.801Z,285.50
2018-05-31T07:31:12.843Z,252.80
2018-05-31T07:32:12.869Z,260.30
2018-05-31T07:33:12.924Z,259.50
2018-05-31T07:34:12.968Z,262.60
2018-05-31T07:35:13.015Z,272.70
2018-05-31T07:36:13.076Z,247.30
2018-05-31T07:37:13.094Z,246.20
2018-05-31T07:38:13.134Z,243.70
2018-05-31T07:39:13.369Z,246.00
2018-05-31T07:40:13.216Z,244.50
2018-05-31T07:41:13.247Z,230.50
2018-05-31T07:42:13.301Z,245.90
2018-05-31T07:43:13.329Z,240.60
2018-05-31T07:44:13.668Z,247.20
2018-05-31T07:45:13.427Z,230.30
2018-05-31T07:46:13.452Z,234.40
2018-05-31T07:47:13.496Z,232.90
2018-05-31T07:48:13.545Z,230.30
2018-05-31T07:49:13.680Z,229.50
2018-05-31T07:50:13.821Z,230.80
2018-05-31T07:51:13.667Z,216.70
2018-05-31T07:52:13.711Z,225.90
2018-05-31T07:53:13.760Z,232.70
2018-05-31T07:54:13.788Z,237.10
2018-05-31T07:55:13.820Z,230.90
2018-05-31T07:56:13.990Z,224.90
2018-05-31T07:57:13.906Z,217.70
2018-05-31T07:58:13.967Z,222.40
2018-05-31T07:59:14.010Z,228.10
2018-05-31T08:00:14.053Z,217.50
2018-05-31T08:01:14.293Z,232.70
2018-05-31T08:02:14.144Z,229.40
2018-05-31T08:03:14.188Z,221.70
2018-05-31T08:04:14.219Z,216.20
2018-05-31T08:05:14.240Z,219.00
2018-05-31T08:06:14.294Z,214.50
2018-05-31T08:07:14.422Z,223.70
2018-05-31T08:08:14.382Z,221.70
2018-05-31T08:09:14.426Z,224.40
2018-05-31T08:10:14.453Z,221.50
2018-05-31T08:11:14.538Z,219.70
2018-05-31T08:12:14.542Z,231.10
2018-05-31T08:13:14.570Z,216.70
2018-05-31T08:14:14.634Z,190.10
2018-05-31T08:15:14.679Z,178.60
2018-05-31T08:16:14.705Z,183.40
2018-05-31T08:17:14.953Z,197.50
2018-05-31T08:18:14.791Z,159.00
2018-05-31T08:19:14.843Z,155.10
2018-05-31T08:20:14.876Z,149.80
2018-05-31T08:21:14.923Z,170.40
2018-05-31T08:22:15.062Z,155.10
2018-05-31T08:23:15.001Z,152.80
2018-05-31T08:24:15.028Z,153.70
2018-05-31T08:25:15.068Z,146.50
2018-05-31T08:26:15.128Z,149.70
2018-05-31T08:27:15.163Z,152.80
2018-05-31T08:28:15.412Z,139.80
2018-05-31T08:29:15.252Z,144.60
2018-05-31T08:30:15.287Z,141.20
2018-05-31T08:31:15.330Z,138.00
2018-05-31T08:32:15.358Z,151.60
2018-05-31T08:33:15.413Z,149.40
2018-05-31T08:34:15.553Z,146.80
2018-05-31T08:35:15.488Z,169.10
2018-05-31T08:36:15.528Z,165.90
2018-05-31T08:37:15.591Z,156.00
2018-05-31T08:38:15.620Z,174.00
2018-05-31T08:39:15.671Z,176.40
2018-05-31T08:40:15.893Z,175.10
2018-05-31T08:41:15.745Z,190.90
2018-05-31T08:42:15.778Z,197.60
2018-05-31T08:43:15.824Z,205.90
2018-05-31T08:44:15.859Z,213.70
2018-05-31T08:45:16.018Z,200.60
2018-05-31T08:46:15.943Z,240.90
2018-05-31T08:47:16.004Z,202.70
2018-05-31T08:48:16.044Z,202.40
2018-05-31T08:49:16.075Z,231.60
2018-05-31T08:50:16.102Z,244.20
2018-05-31T08:51:16.370Z,271.50
2018-05-31T08:52:16.211Z,226.80
2018-05-31T08:53:16.234Z,219.00
2018-05-31T08:54:16.289Z,221.90
2018-05-31T08:55:16.322Z,216.70
2018-05-31T08:56:16.351Z,205.70
2018-05-31T08:57:16.408Z,230.20
2018-05-31T08:58:16.433Z,221.40
2018-05-31T08:59:16.508Z,243.40
2018-05-31T09:00:16.532Z,249.20
2018-05-31T09:01:16.670Z,254.20
2018-05-31T09:02:16.615Z,261.60
2018-05-31T09:03:16.655Z,255.70
2018-05-31T09:04:16.700Z,244.00
2018-05-31T09:05:16.740Z,213.90
2018-05-31T09:06:16.983Z,217.70
2018-05-31T09:07:16.821Z,245.80
2018-05-31T09:08:16.859Z,248.60
2018-05-31T09:09:16.915Z,231.00
2018-05-31T09:10:16.949Z,237.30
2018-05-31T09:11:16.980Z,231.80
2018-05-31T09:12:17.115Z,231.40
2018-05-31T09:13:17.076Z,218.20
2018-05-31T09:14:17.117Z,255.60
2018-05-31T09:15:17.145Z,257.40
2018-05-31T09:16:17.176Z,255.50
2018-05-31T09:17:17.244Z,262.90
2018-05-31T09:18:17.273Z,255.40
2018-05-31T09:19:17.329Z,261.70
2018-05-31T09:20:17.365Z,251.10
2018-05-31T09:21:17.409Z,263.00
2018-05-31T09:22:17.629Z,258.20
2018-05-31T09:23:17.490Z,278.00
2018-05-31T09:24:17.517Z,250.30
2018-05-31T09:25:17.574Z,261.80
2018-05-31T09:26:17.620Z,254.30
2018-05-31T09:27:17.737Z,251.50
2018-05-31T09:28:17.681Z,252.10
2018-05-31T09:29:17.739Z,237.70
2018-05-31T09:30:17.763Z,265.80
2018-05-31T09:31:17.804Z,246.90
2018-05-31T09:32:17.869Z,251.60
2018-05-31T09:33:18.007Z,246.90
2018-05-31T09:34:17.924Z,260.60
2018-05-31T09:35:17.992Z,237.60
2018-05-31T09:36:18.020Z,267.40
2018-05-31T09:37:18.061Z,266.50
2018-05-31T09:38:18.099Z,260.00
2018-05-31T09:39:18.234Z,262.10
2018-05-31T09:40:18.174Z,245.80
2018-05-31T09:41:18.227Z,251.90
2018-05-31T09:42:18.262Z,269.80
2018-05-31T09:43:18.311Z,276.30
2018-05-31T09:44:18.350Z,262.60
2018-05-31T09:45:18.583Z,281.30
2018-05-31T09:46:18.433Z,277.50
2018-05-31T09:47:18.461Z,272.80
2018-05-31T09:48:18.527Z,275.80
2018-05-31T09:49:18.555Z,271.20
2018-05-31T09:50:18.596Z,286.00
2018-05-31T09:51:18.634Z,271.80
2018-05-31T09:52:18.662Z,273.50
2018-05-31T09:53:18.724Z,294.30
2018-05-31T09:54:18.750Z,295.60
2018-05-31T09:55:18.900Z,273.90
2018-05-31T09:56:19.047Z,265.90
2018-05-31T09:57:18.871Z,249.00
2018-05-31T09:58:18.920Z,274.60
2018-05-31T09:59:18.975Z,256.30
2018-05-31T10:00:19.013Z,277.60
2018-05-31T10:01:19.048Z,288.90
2018-05-31T10:02:19.178Z,320.80
2018-05-31T10:03:19.141Z,322.30
2018-05-31T10:04:19.189Z,307.90
2018-05-31T10:05:19.214Z,329.00
2018-05-31T10:06:19.261Z,298.50
2018-05-31T10:07:19.481Z,340.00
2018-05-31T10:08:19.338Z,319.40
2018-05-31T10:09:19.392Z,276.90
2018-05-31T10:10:19.409Z,325.10
2018-05-31T10:11:19.468Z,257.50
2018-05-31T10:12:19.507Z,235.50
2018-05-31T10:13:19.648Z,250.80
2018-05-31T10:14:19.589Z,243.80
2018-05-31T10:15:19.628Z,280.70
2018-05-31T10:16:19.666Z,290.50
2018-05-31T10:17:19.704Z,257.10
2018-05-31T10:18:19.756Z,283.30
2018-05-31T10:19:19.774Z,260.90
2018-05-31T10:20:19.832Z,273.00
2018-05-31T10:21:19.860Z,284.10
2018-05-31T10:22:19.916Z,241.40
2018-05-31T10:23:20.159Z,276.40
2018-05-31T10:24:19.979Z,226.40
2018-05-31T10:25:20.025Z,226.30
2018-05-31T10:26:20.080Z,219.50
2018-05-31T10:27:20.151Z,215.10
2018-05-31T10:28:20.255Z,199.00
2018-05-31T10:29:20.193Z,188.20
2018-05-31T10:30:20.239Z,180.90
2018-05-31T10:31:20.277Z,171.40
2018-05-31T10:32:20.323Z,173.90
2018-05-31T10:33:20.351Z,174.70
2018-05-31T10:34:20.389Z,169.00
2018-05-31T10:35:20.447Z,137.10
2018-05-31T10:36:20.495Z,121.60
2018-05-31T10:37:20.520Z,116.00
2018-05-31T10:38:20.772Z,119.90
2018-05-31T10:39:20.707Z,141.10
2018-05-31T10:40:20.664Z,169.80
2018-05-31T10:41:20.694Z,178.40
2018-05-31T10:42:20.728Z,178.50
2018-05-31T10:43:20.777Z,196.00
2018-05-31T10:44:20.839Z,206.90
2018-05-31T10:45:21.067Z,213.30
2018-05-31T10:46:20.918Z,211.20
2018-05-31T10:47:20.964Z,230.10
2018-05-31T10:48:21.002Z,238.20
2018-05-31T10:49:21.054Z,253.60
2018-05-31T10:50:21.197Z,272.90
2018-05-31T10:51:21.139Z,261.50
2018-05-31T10:52:21.184Z,266.10
2018-05-31T10:53:21.241Z,272.80
2018-05-31T10:54:21.263Z,272.70
2018-05-31T10:55:21.307Z,276.30
2018-05-31T10:56:21.366Z,343.90
2018-05-31T10:57:21.435Z,266.80
2018-05-31T10:58:21.445Z,284.30
2018-05-31T10:59:21.568Z,292.80
2018-05-31T11:00:21.656Z,262.50
2018-05-31T11:01:21.593Z,284.10
2018-05-31T11:02:21.647Z,274.30
2018-05-31T11:03:21.678Z,266.60
2018-05-31T11:04:21.744Z,269.50
2018-05-31T11:05:21.789Z,268.20
2018-05-31T11:06:21.835Z,289.10
2018-05-31T11:07:21.881Z,280.10
2018-05-31T11:08:21.922Z,272.90
2018-05-31T11:09:21.969Z,291.80
2018-05-31T11:10:22.129Z,316.40
2018-05-31T11:11:22.067Z,296.40
2018-05-31T11:12:22.123Z,292.30
2018-05-31T11:13:22.159Z,252.50
2018-05-31T11:14:22.225Z,241.80
2018-05-31T11:15:22.281Z,270.70
2018-05-31T11:16:22.309Z,284.40
2018-05-31T11:17:22.368Z,281.60
2018-05-31T11:18:22.420Z,298.30
2018-05-31T11:19:22.474Z,316.10
2018-05-31T11:20:22.622Z,323.20
2018-05-31T11:21:22.549Z,314.80
2018-05-31T11:22:22.618Z,328.60
2018-05-31T11:23:22.659Z,315.00
2018-05-31T11:24:22.709Z,305.80
2018-05-31T11:25:22.761Z,348.90
2018-05-31T11:26:22.820Z,313.60
2018-05-31T11:27:22.949Z,312.10
2018-05-31T11:28:22.909Z,304.30
2018-05-31T11:29:22.967Z,301.80
2018-05-31T11:30:22.992Z,333.70
2018-05-31T11:31:23.059Z,298.20
2018-05-31T11:32:23.410Z,356.30
2018-05-31T11:33:23.164Z,330.00
2018-05-31T11:34:23.202Z,438.30
2018-05-31T11:35:23.257Z,361.40
2018-05-31T11:36:23.290Z,403.80
2018-05-31T11:37:23.348Z,353.40
2018-05-31T11:38:23.512Z,302.80
2018-05-31T11:39:23.460Z,286.70
2018-05-31T11:40:23.496Z,288.10
2018-05-31T11:41:23.551Z,280.70
2018-05-31T11:42:23.607Z,262.50
2018-05-31T11:43:23.838Z,282.70
2018-05-31T11:44:23.710Z,345.70
2018-05-31T11:45:23.754Z,423.30
2018-05-31T11:46:23.814Z,299.00
2018-05-31T11:47:23.863Z,279.70
2018-05-31T11:48:23.890Z,294.30
2018-05-31T11:49:23.967Z,281.40
2018-05-31T11:50:24.010Z,284.30
2018-05-31T11:51:24.058Z,320.00
2018-05-31T11:52:24.112Z,290.20
2018-05-31T11:53:24.242Z,269.80
2018-05-31T11:54:24.220Z,313.90
2018-05-31T11:55:24.247Z,300.10
2018-05-31T11:56:24.299Z,287.50
2018-05-31T11:57:24.362Z,254.20
2018-05-31T11:58:24.402Z,304.10
2018-05-31T11:59:24.475Z,281.50
2018-05-31T12:00:24.648Z,269.10
2018-05-31T12:01:24.550Z,311.20
2018-05-31T12:02:24.600Z,305.80
2018-05-31T12:03:24.673Z,281.70
2018-05-31T12:04:24.721Z,287.10
2018-05-31T12:05:24.954Z,268.10
2018-05-31T12:06:24.848Z,256.70
2018-05-31T12:07:24.859Z,290.40
2018-05-31T12:08:24.928Z,256.60
2018-05-31T12:09:24.972Z,281.90
2018-05-31T12:10:25.027Z,268.40
2018-05-31T12:11:25.433Z,285.20
2018-05-31T12:12:25.130Z,287.70
2018-05-31T12:13:25.192Z,252.10
2018-05-31T12:14:25.232Z,260.80
2018-05-31T12:15:25.286Z,287.30
2018-05-31T12:16:25.330Z,349.70
2018-05-31T12:17:25.607Z,271.40
2018-05-31T12:18:25.446Z,284.50
2018-05-31T12:19:25.517Z,288.90
2018-05-31T12:20:25.539Z,254.90
2018-05-31T12:21:25.599Z,254.60
2018-05-31T12:22:25.851Z,274.80
2018-05-31T12:23:25.700Z,283.20
2018-05-31T12:24:25.751Z,306.20
2018-05-31T12:25:25.806Z,279.80
2018-05-31T12:26:25.857Z,231.10
2018-05-31T12:27:25.908Z,222.20
2018-05-31T12:28:26.059Z,230.50
2018-05-31T12:29:26.005Z,228.80
2018-05-31T12:30:26.060Z,203.90